createdAt,value
2023-03-30T00:00:14.043Z,60.92
2023-03-30T00:03:29.877Z,61.08
2023-03-30T00:06:38.861Z,62.69
2023-03-30T00:09:47.342Z,62.53
2023-03-30T00:13:03.421Z,62.09
2023-03-30T00:16:14.248Z,62.23
2023-03-30T00:19:22.694Z,61.91
2023-03-30T00:22:37.379Z,61.49
2023-03-30T00:25:39.029Z,61.72
2023-03-30T00:28:53.414Z,61.34
2023-03-30T00:31:55.723Z,61.15
2023-03-30T00:35:11.617Z,61.36
2023-03-30T00:38:13.418Z,61.29
2023-03-30T00:41:28.416Z,61.44
2023-03-30T00:44:50.083Z,61.48
2023-03-30T00:48:19.451Z,61.81
2023-03-30T00:51:27.394Z,61.80
2023-03-30T00:54:38.116Z,61.30
2023-03-30T00:57:49.460Z,61.36
2023-03-30T01:01:01.835Z,60.09
2023-03-30T01:04:17.988Z,60.80
2023-03-30T01:07:32.405Z,61.29
2023-03-30T01:10:35.170Z,61.88
2023-03-30T01:13:53.405Z,61.50
2023-03-30T01:17:10.263Z,61.31
2023-03-30T01:20:58.429Z,61.74
2023-03-30T01:24:45.201Z,61.07
2023-03-30T01:28:27.460Z,61.11
2023-03-30T01:31:59.706Z,61.26
2023-03-30T01:35:44.559Z,61.23
2023-03-30T01:39:13.197Z,61.58
2023-03-30T01:42:33.507Z,61.97
2023-03-30T01:46:01.411Z,62.29
2023-03-30T01:49:23.429Z,62.64
2023-03-30T01:52:35.733Z,62.93
2023-03-30T01:55:59.422Z,63.36
2023-03-30T01:59:10.539Z,63.80
2023-03-30T02:02:29.514Z,64.32
2023-03-30T02:05:46.648Z,64.10
2023-03-30T02:08:58.918Z,64.68
2023-03-30T02:12:09.485Z,64.52
2023-03-30T02:15:19.599Z,64.79
2023-03-30T02:18:29.215Z,64.38
2023-03-30T02:21:43.441Z,64.06
2023-03-30T02:24:54.506Z,63.35
2023-03-30T02:28:03.321Z,62.96
2023-03-30T02:31:18.510Z,62.36
2023-03-30T02:34:54.709Z,62.14
2023-03-30T02:38:21.713Z,62.35
2023-03-30T02:41:47.479Z,61.94
2023-03-30T02:45:24.474Z,62.02
2023-03-30T02:48:46.756Z,62.03
2023-03-30T02:52:14.714Z,61.71
2023-03-30T02:55:38.548Z,61.23
2023-03-30T02:59:01.214Z,60.81
2023-03-30T03:02:13.872Z,61.28
2023-03-30T03:05:36.490Z,59.88
2023-03-30T03:08:47.590Z,59.64
2023-03-30T03:11:56.228Z,59.58
2023-03-30T03:15:04.515Z,58.14
2023-03-30T03:18:13.460Z,58.81
2023-03-30T03:21:22.454Z,59.52
2023-03-30T03:24:37.525Z,59.35
2023-03-30T03:27:39.908Z,57.98
2023-03-30T03:30:55.501Z,58.21
2023-03-30T03:33:57.457Z,57.63
2023-03-30T03:37:12.465Z,57.12
2023-03-30T03:40:21.179Z,57.56
2023-03-30T03:43:35.502Z,57.28
2023-03-30T03:46:43.532Z,57.01
2023-03-30T03:50:17.518Z,56.66
2023-03-30T03:53:28.037Z,57.58
2023-03-30T03:56:36.476Z,57.30
2023-03-30T03:59:51.522Z,57.71
2023-03-30T04:03:00.120Z,57.72
2023-03-30T04:06:21.570Z,58.08
2023-03-30T04:09:23.814Z,57.97
2023-03-30T04:12:38.582Z,57.65
2023-03-30T04:15:40.187Z,57.43
2023-03-30T04:18:55.097Z,58.34
2023-03-30T04:22:10.089Z,58.24
2023-03-30T04:25:19.160Z,58.16
2023-03-30T04:28:28.520Z,57.35
2023-03-30T04:31:37.024Z,57.89
2023-03-30T04:34:46.510Z,57.51
2023-03-30T04:38:01.498Z,57.26
2023-03-30T04:41:03.461Z,56.66
2023-03-30T04:44:18.550Z,56.58
2023-03-30T04:47:20.184Z,56.60
2023-03-30T04:50:37.532Z,57.27
2023-03-30T04:53:39.200Z,57.38
2023-03-30T04:56:53.606Z,56.48
2023-03-30T04:59:58.379Z,56.74
2023-03-30T05:03:14.918Z,57.26
2023-03-30T05:06:24.171Z,55.47
2023-03-30T05:09:32.823Z,55.44
2023-03-30T05:12:47.514Z,56.76
2023-03-30T05:15:58.090Z,56.13
2023-03-30T05:19:06.562Z,56.28
2023-03-30T05:22:21.581Z,55.83
2023-03-30T05:25:29.570Z,55.80
2023-03-30T05:28:44.614Z,55.89
2023-03-30T05:31:46.470Z,54.97
2023-03-30T05:35:01.565Z,55.65
2023-03-30T05:38:10.390Z,56.01
2023-03-30T05:41:18.557Z,55.15
2023-03-30T05:44:38.270Z,55.58
2023-03-30T05:47:46.766Z,55.63
2023-03-30T05:50:55.532Z,56.18
2023-03-30T05:54:06.892Z,56.22
2023-03-30T05:57:23.705Z,55.95
2023-03-30T06:00:33.364Z,55.40
2023-03-30T06:03:42.622Z,55.69
2023-03-30T06:07:06.761Z,54.84
2023-03-30T06:10:08.857Z,54.80
2023-03-30T06:13:23.854Z,54.75
2023-03-30T06:16:31.688Z,54.69
2023-03-30T06:19:40.290Z,55.47
2023-03-30T06:22:48.841Z,55.27
2023-03-30T06:25:58.146Z,54.71
2023-03-30T06:29:12.219Z,54.68
2023-03-30T06:32:29.618Z,53.82
2023-03-30T06:35:32.071Z,54.05
2023-03-30T06:38:47.582Z,53.63
2023-03-30T06:41:49.542Z,53.69
2023-03-30T06:45:04.627Z,54.25
2023-03-30T06:48:08.584Z,54.60
2023-03-30T06:51:24.861Z,54.84
2023-03-30T06:55:01.515Z,54.61
2023-03-30T06:58:10.490Z,54.61
2023-03-30T07:01:25.622Z,54.68
2023-03-30T07:04:40.647Z,54.85
2023-03-30T07:07:55.645Z,55.51
2023-03-30T07:11:03.869Z,56.01
2023-03-30T07:14:12.418Z,56.37
2023-03-30T07:17:20.920Z,56.10
2023-03-30T07:20:36.599Z,56.89
2023-03-30T07:39:25.234Z,53.21
2023-03-30T07:42:34.496Z,53.21
2023-03-30T07:45:49.376Z,54.60
2023-03-30T07:48:51.429Z,54.32
2023-03-30T07:52:06.355Z,54.25
2023-03-30T07:55:08.262Z,55.16
2023-03-30T07:58:23.377Z,54.78
2023-03-30T08:01:25.117Z,54.21
2023-03-30T08:04:39.663Z,53.99
2023-03-30T08:07:54.365Z,54.14
2023-03-30T08:11:02.670Z,53.43
2023-03-30T08:14:17.369Z,53.38
2023-03-30T08:17:19.369Z,53.45
2023-03-30T08:20:34.354Z,53.87
2023-03-30T08:23:42.570Z,53.66
2023-03-30T08:26:57.374Z,53.42
2023-03-30T08:30:05.623Z,52.97
2023-03-30T08:33:14.627Z,53.85
2023-03-30T08:36:29.466Z,54.66
2023-03-30T08:39:44.382Z,54.88
2023-03-30T08:43:12.194Z,54.67
2023-03-30T08:46:23.384Z,54.22
2023-03-30T08:49:47.356Z,54.33
2023-03-30T08:52:57.317Z,54.04
2023-03-30T08:56:15.388Z,53.90
2023-03-30T08:59:57.359Z,54.33
2023-03-30T09:10:48.637Z,51.50
2023-03-30T09:14:13.374Z,52.32
2023-03-30T09:17:40.423Z,52.07
2023-03-30T09:20:53.553Z,52.10
2023-03-30T09:24:20.381Z,51.24
2023-03-30T09:27:45.398Z,53.26
2023-03-30T09:31:26.684Z,53.63
2023-03-30T09:34:53.263Z,54.07
2023-03-30T09:37:58.202Z,55.04
2023-03-30T09:41:31.392Z,54.89
2023-03-30T09:45:01.466Z,54.61
2023-03-30T09:48:20.015Z,54.83
2023-03-30T09:51:35.375Z,55.19
2023-03-30T09:54:47.162Z,54.54
2023-03-30T09:58:20.403Z,54.07
2023-03-30T10:01:43.427Z,53.91
2023-03-30T10:05:05.460Z,53.34
2023-03-30T10:08:27.676Z,53.15
2023-03-30T10:11:42.383Z,52.75
2023-03-30T10:15:04.847Z,52.28
2023-03-30T10:18:35.501Z,53.09
2023-03-30T10:21:48.700Z,53.79
2023-03-30T10:25:33.437Z,54.03
2023-03-30T10:28:54.208Z,53.99
2023-03-30T10:32:19.133Z,53.89
2023-03-30T10:35:42.439Z,54.35
2023-03-30T10:38:46.003Z,53.93
2023-03-30T10:42:03.453Z,53.13
2023-03-30T10:45:28.449Z,53.02
2023-03-30T10:48:56.397Z,52.99
2023-03-30T10:52:32.398Z,52.44
2023-03-30T10:56:06.633Z,52.21
2023-03-30T10:59:45.403Z,52.03
2023-03-30T11:03:27.825Z,49.05
2023-03-30T11:06:35.451Z,48.14
2023-03-30T11:10:02.431Z,48.18
2023-03-30T11:13:17.381Z,50.17
2023-03-30T11:16:45.665Z,50.76
2023-03-30T11:19:51.912Z,51.77
2023-03-30T11:23:16.421Z,52.58
2023-03-30T11:27:02.589Z,53.43
2023-03-30T11:30:40.506Z,53.66
2023-03-30T11:34:02.466Z,52.58
2023-03-30T11:37:36.965Z,52.95
2023-03-30T11:40:53.227Z,52.85
2023-03-30T11:44:07.692Z,52.96
2023-03-30T11:47:48.568Z,53.67
2023-03-30T11:51:21.493Z,53.72
2023-03-30T11:55:07.489Z,52.99
2023-03-30T11:58:21.138Z,51.67
2023-03-30T12:01:50.199Z,47.54
2023-03-30T12:05:27.639Z,48.08
2023-03-30T12:08:58.813Z,43.59
2023-03-30T12:12:18.500Z,39.23
2023-03-30T12:15:44.798Z,44.02
2023-03-30T12:19:11.256Z,45.08
2023-03-30T12:22:36.208Z,45.25
2023-03-30T12:26:10.727Z,46.55
2023-03-30T12:32:34.746Z,46.05
2023-03-30T12:35:57.333Z,47.77
2023-03-30T12:39:22.728Z,49.29
2023-03-30T12:42:47.720Z,50.73
2023-03-30T12:46:18.577Z,51.43
2023-03-30T12:49:41.826Z,52.10
2023-03-30T12:53:14.490Z,51.89
2023-03-30T12:56:43.298Z,52.36
2023-03-30T13:00:32.477Z,52.20
2023-03-30T13:03:48.547Z,52.09
2023-03-30T13:07:08.711Z,52.07
2023-03-30T13:10:37.094Z,52.67
2023-03-30T13:14:06.473Z,52.39
2023-03-30T13:17:16.422Z,52.61
2023-03-30T13:20:41.989Z,53.40
2023-03-30T13:24:01.506Z,53.27
2023-03-30T13:27:40.505Z,52.95
2023-03-30T13:31:21.734Z,52.77
2023-03-30T13:34:51.452Z,53.80
2023-03-30T13:38:36.553Z,53.72
2023-03-30T13:42:22.382Z,54.02
2023-03-30T13:46:05.791Z,53.91
2023-03-30T13:49:37.509Z,53.61
2023-03-30T13:52:55.859Z,53.86
2023-03-30T13:55:58.101Z,54.14
2023-03-30T13:59:19.579Z,54.45
2023-03-30T14:02:23.802Z,54.48
2023-03-30T14:05:38.527Z,54.25
2023-03-30T14:11:59.392Z,54.32
2023-03-30T14:15:24.510Z,54.02
2023-03-30T14:18:26.581Z,54.61
2023-03-30T14:21:43.537Z,54.74
2023-03-30T14:25:04.644Z,55.08
2023-03-30T14:28:19.930Z,55.01
2023-03-30T14:31:28.613Z,55.75
2023-03-30T14:34:37.629Z,55.90
2023-03-30T14:37:51.889Z,55.90
2023-03-30T14:41:07.511Z,55.60
2023-03-30T14:44:19.843Z,56.00
2023-03-30T14:47:36.426Z,56.16
2023-03-30T14:50:45.581Z,56.05
2023-03-30T14:57:18.202Z,56.39
2023-03-30T15:00:36.542Z,56.23
2023-03-30T15:03:47.211Z,56.34
2023-03-30T15:06:55.564Z,56.05
2023-03-30T15:10:04.789Z,56.26
2023-03-30T15:13:14.584Z,56.05
2023-03-30T15:16:28.122Z,55.76
2023-03-30T15:19:38.548Z,55.95
2023-03-30T15:22:50.459Z,56.24
2023-03-30T15:26:07.543Z,56.72
2023-03-30T15:29:10.226Z,56.87
2023-03-30T15:32:31.595Z,57.12
2023-03-30T15:35:48.581Z,57.28
2023-03-30T15:38:58.410Z,57.36
2023-03-30T15:42:13.552Z,57.27
2023-03-30T15:45:15.687Z,57.30
2023-03-30T15:48:37.550Z,57.21
2023-03-30T15:51:50.541Z,57.14
2023-03-30T15:55:12.568Z,57.40
2023-03-30T15:58:20.960Z,57.68
2023-03-30T16:01:49.980Z,58.03
2023-03-30T16:04:51.849Z,59.51
2023-03-30T16:08:07.626Z,61.27
2023-03-30T16:14:42.620Z,63.75
2023-03-30T16:17:57.617Z,65.03
2023-03-30T16:20:59.598Z,65.50
2023-03-30T16:24:14.570Z,66.55
2023-03-30T16:27:22.607Z,67.45
2023-03-30T16:30:34.799Z,67.88
2023-03-30T16:33:43.665Z,71.38
2023-03-30T16:36:57.323Z,72.43
2023-03-30T16:40:30.614Z,73.58
2023-03-30T16:43:45.628Z,72.81
2023-03-30T16:46:54.092Z,72.68
2023-03-30T16:50:02.581Z,74.46
2023-03-30T16:53:11.963Z,75.38
2023-03-30T16:56:23.668Z,75.25
2023-03-30T16:59:39.602Z,76.18
2023-03-30T17:02:41.487Z,78.37
2023-03-30T17:05:56.746Z,78.87
2023-03-30T17:09:12.596Z,79.81
2023-03-30T17:12:14.261Z,80.21
2023-03-30T17:15:30.613Z,79.73
2023-03-30T17:18:38.664Z,81.68
2023-03-30T17:21:47.244Z,80.53
2023-03-30T17:24:55.667Z,80.32
2023-03-30T17:28:10.680Z,80.10
2023-03-30T17:31:18.661Z,81.05
2023-03-30T17:34:34.382Z,81.57
2023-03-30T17:37:42.709Z,82.46
2023-03-30T17:41:05.772Z,85.11
2023-03-30T17:44:13.644Z,84.89
2023-03-30T17:47:22.211Z,83.34
2023-03-30T17:50:33.638Z,83.68
2023-03-30T17:53:48.675Z,84.19
2023-03-30T17:56:50.407Z,84.73
2023-03-30T18:00:04.640Z,83.68
2023-03-30T18:03:06.429Z,83.98
2023-03-30T18:06:20.633Z,83.03
2023-03-30T18:09:28.758Z,82.35
2023-03-30T18:12:37.268Z,84.29
2023-03-30T18:15:53.678Z,84.26
2023-03-30T18:19:01.858Z,86.36
2023-03-30T18:22:10.754Z,86.83
2023-03-30T18:25:31.395Z,87.53
2023-03-30T18:28:47.623Z,87.63
2023-03-30T18:31:55.771Z,87.59
2023-03-30T18:35:04.656Z,88.24
2023-03-30T18:38:12.865Z,89.04
2023-03-30T18:41:36.963Z,89.90
2023-03-30T18:44:41.729Z,91.57
2023-03-30T18:47:56.731Z,92.13
2023-03-30T18:51:04.663Z,91.77
2023-03-30T18:54:19.685Z,92.29
2023-03-30T18:57:42.690Z,92.10
2023-03-30T19:00:53.969Z,92.72
2023-03-30T19:04:04.160Z,91.21
2023-03-30T19:07:18.809Z,90.70
2023-03-30T19:10:23.402Z,90.78
2023-03-30T19:13:39.074Z,91.08
2023-03-30T19:16:47.741Z,91.74
2023-03-30T19:20:16.900Z,92.07
2023-03-30T19:23:31.670Z,91.32
2023-03-30T19:26:40.512Z,92.15
2023-03-30T19:29:48.660Z,92.34
2023-03-30T19:33:15.417Z,92.89
2023-03-30T19:36:29.716Z,91.83
2023-03-30T19:39:39.349Z,91.98
2023-03-30T19:42:54.734Z,91.55
2023-03-30T19:46:10.876Z,91.30
2023-03-30T19:49:19.349Z,90.42
2023-03-30T19:52:37.885Z,90.21
2023-03-30T19:55:46.369Z,90.46
2023-03-30T19:58:54.723Z,90.42
2023-03-30T20:02:12.780Z,90.21
2023-03-30T20:05:21.704Z,90.24
2023-03-30T20:08:30.906Z,89.56
2023-03-30T20:11:39.701Z,89.25
2023-03-30T20:14:58.270Z,89.70
2023-03-30T20:18:12.851Z,90.59
2023-03-30T20:21:14.567Z,90.44
2023-03-30T20:24:31.108Z,90.58
2023-03-30T20:27:33.691Z,90.52
2023-03-30T20:30:49.701Z,90.52
2023-03-30T20:34:04.714Z,90.52
2023-03-30T20:37:06.387Z,90.39
2023-03-30T20:40:27.748Z,91.42
2023-03-30T20:43:29.832Z,90.64
2023-03-30T20:46:45.766Z,90.70
2023-03-30T20:49:54.345Z,91.19
2023-03-30T20:53:04.483Z,91.58
2023-03-30T20:56:13.889Z,93.53
2023-03-30T20:59:24.969Z,93.82
2023-03-30T21:02:38.080Z,93.96
2023-03-30T21:05:46.939Z,95.04
2023-03-30T21:09:04.773Z,96.54
2023-03-30T21:12:14.991Z,97.77
2023-03-30T21:15:29.951Z,98.56
2023-03-30T21:18:42.765Z,97.05
2023-03-30T21:21:51.673Z,96.63
2023-03-30T21:24:59.790Z,96.81
2023-03-30T21:28:08.802Z,96.39
2023-03-30T21:31:23.864Z,96.39
2023-03-30T21:34:26.011Z,96.39
2023-03-30T21:37:41.778Z,97.08
2023-03-30T21:41:02.655Z,97.70
2023-03-30T21:44:26.979Z,97.94
2023-03-30T21:47:29.832Z,97.94
2023-03-30T21:50:44.990Z,97.69
2023-03-30T21:53:55.835Z,97.33
2023-03-30T21:57:10.902Z,97.66
2023-03-30T22:00:26.065Z,99.03
2023-03-30T22:03:35.834Z,99.95
2023-03-30T22:06:50.770Z,99.98
2023-03-30T22:09:55.803Z,100.00
2023-03-30T22:13:11.815Z,100.00
2023-03-30T22:16:30.500Z,100.00
2023-03-30T22:19:32.330Z,100.00
2023-03-30T22:22:46.809Z,100.00
2023-03-30T22:25:50.738Z,100.00
2023-03-30T22:29:06.773Z,99.92
2023-03-30T22:32:08.687Z,99.73
2023-03-30T22:35:23.894Z,99.04
2023-03-30T22:38:26.056Z,98.62
2023-03-30T22:41:47.787Z,97.84
2023-03-30T22:44:55.817Z,98.24
2023-03-30T22:48:15.610Z,98.46
2023-03-30T22:51:23.824Z,98.28
2023-03-30T22:54:40.820Z,97.39
2023-03-30T22:57:59.985Z,96.81
2023-03-30T23:01:11.385Z,95.68
2023-03-30T23:04:19.792Z,95.65
2023-03-30T23:07:37.206Z,95.08
2023-03-30T23:10:47.874Z,95.50
2023-03-30T23:14:10.191Z,95.60
2023-03-30T23:17:18.948Z,94.96
2023-03-30T23:20:33.843Z,95.33
2023-03-30T23:27:04.834Z,95.55
2023-03-30T23:30:15.207Z,95.99
2023-03-30T23:33:24.268Z,95.78
2023-03-30T23:36:33.111Z,95.75
2023-03-30T23:39:55.803Z,95.53
2023-03-30T23:43:18.832Z,95.83
2023-03-30T23:46:33.855Z,95.50
2023-03-30T23:49:35.584Z,95.91
2023-03-30T23:52:50.841Z,95.43
2023-03-30T23:55:59.791Z,96.04
2023-03-30T23:59:08.803Z,96.56
